Time;durP1;ratioP1;P1;durP2;ratioP2;P2;SDS_P1;SDS_P2;PMS_P1;PMS_P2;Temp;Humidity;BMP_temperature;BMP_pressure;BME280_temperature;BME280_humidity;BME280_pressure;Samples;Min_cycle;Max_cycle;Signal;HPM_P1;HPM_P2
2023/08/08 00:02:44;;;;;;;3.80;3.00;;;18.50;91.70;;;;;;10492051;28;20414;-64
2023/08/08 00:07:45;;;;;;;5.07;3.20;;;18.50;91.70;;;;;;10496409;28;20396;-64
2023/08/08 00:12:46;;;;;;;3.87;3.00;;;18.40;91.70;;;;;;10498295;28;20432;-64
2023/08/08 00:17:46;;;;;;;3.40;3.10;;;18.40;91.80;;;;;;10485934;28;20446;-64
2023/08/08 00:22:47;;;;;;;4.05;3.50;;;18.40;92.10;;;;;;10485026;28;20404;-64
2023/08/08 00:27:49;;;;;;;3.70;3.03;;;18.40;91.80;;;;;;10485015;28;20484;-64
2023/08/08 00:32:50;;;;;;;4.40;3.27;;;18.40;91.90;;;;;;10486189;28;20970;-64
2023/08/08 00:37:50;;;;;;;4.13;3.30;;;18.40;91.90;;;;;;10471734;28;20415;-64
2023/08/08 00:42:51;;;;;;;4.43;3.30;;;18.40;92.00;;;;;;10486967;28;20414;-64
2023/08/08 00:47:52;;;;;;;6.40;3.50;;;18.40;92.00;;;;;;10493662;28;20411;-64
2023/08/08 00:52:52;;;;;;;4.20;3.53;;;18.40;92.00;;;;;;10482250;28;20946;-64
2023/08/08 00:57:54;;;;;;;6.75;3.40;;;18.40;92.10;;;;;;10474468;28;20411;-64
2023/08/08 01:02:54;;;;;;;5.57;3.53;;;18.40;92.10;;;;;;10504110;28;20448;-64
2023/08/08 01:08:07;;;;;;;4.70;3.70;;;18.30;92.10;;;;;;10484782;28;20486;-64
2023/08/08 01:13:14;;;;;;;4.25;3.30;;;18.30;92.20;;;;;;10482560;28;20412;-64
2023/08/08 01:18:15;;;;;;;4.63;3.83;;;18.30;92.20;;;;;;10479267;28;20413;-64
2023/08/08 01:23:32;;;;;;;4.85;3.83;;;18.40;92.20;;;;;;10493363;28;20410;-64
2023/08/08 01:28:34;;;;;;;4.63;3.60;;;18.30;92.30;;;;;;10485336;28;20406;-65
2023/08/08 01:33:35;;;;;;;4.72;3.40;;;18.30;92.30;;;;;;10490118;28;20761;-64
2023/08/08 01:38:43;;;;;;;5.37;4.10;;;18.30;92.30;;;;;;10488530;28;20407;-63
2023/08/08 01:43:45;;;;;;;4.80;3.78;;;18.30;92.30;;;;;;10476433;28;20946;-64
2023/08/08 01:48:46;;;;;;;4.32;3.78;;;18.30;92.40;;;;;;10477796;28;20903;-64
2023/08/08 01:53:47;;;;;;;4.43;3.80;;;18.30;92.40;;;;;;10492117;28;20402;-64
2023/08/08 01:58:48;;;;;;;4.93;3.60;;;18.30;92.40;;;;;;10478016;28;20405;-64
2023/08/08 02:03:48;;;;;;;7.03;4.00;;;18.30;92.50;;;;;;10483230;28;20393;-64
2023/08/08 02:08:49;;;;;;;4.30;3.73;;;18.30;92.50;;;;;;10489322;28;21067;-64
2023/08/08 02:13:49;;;;;;;4.77;3.87;;;18.30;92.50;;;;;;10482803;28;20461;-64
2023/08/08 02:18:50;;;;;;;5.60;4.00;;;18.30;92.50;;;;;;10489834;28;20416;-64
2023/08/08 02:23:51;;;;;;;4.60;3.97;;;18.30;92.60;;;;;;10490062;28;20850;-64
2023/08/08 02:28:51;;;;;;;5.73;4.30;;;18.30;92.60;;;;;;10478682;28;20390;-63
2023/08/08 02:33:52;;;;;;;6.67;4.20;;;18.30;92.60;;;;;;10492831;28;20405;-64
2023/08/08 02:38:53;;;;;;;4.82;4.10;;;18.20;92.60;;;;;;10488458;28;20414;-64
2023/08/08 02:43:54;;;;;;;5.97;4.55;;;18.30;92.70;;;;;;10488766;28;20397;-64
2023/08/08 02:48:54;;;;;;;5.77;4.57;;;18.30;92.80;;;;;;10473418;28;20397;-64
2023/08/08 02:53:55;;;;;;;5.83;4.50;;;18.30;92.80;;;;;;10481897;28;20956;-64
2023/08/08 02:58:55;;;;;;;5.80;4.20;;;18.20;92.70;;;;;;10490229;28;20404;-64
2023/08/08 03:03:56;;;;;;;5.30;4.25;;;18.20;92.80;;;;;;10498551;28;20900;-64
2023/08/08 03:08:57;;;;;;;6.28;4.40;;;18.20;92.90;;;;;;10483223;28;20416;-64
2023/08/08 03:13:57;;;;;;;5.75;4.30;;;18.20;92.90;;;;;;10475250;28;20917;-64
2023/08/08 03:18:58;;;;;;;6.57;4.40;;;18.20;92.90;;;;;;10492727;28;20746;-64
2023/08/08 03:23:59;;;;;;;5.30;4.40;;;18.20;92.90;;;;;;10496778;28;20779;-64
2023/08/08 03:28:59;;;;;;;5.05;4.25;;;18.20;92.90;;;;;;10503295;28;20395;-64
2023/08/08 03:34:00;;;;;;;5.68;4.35;;;18.20;92.90;;;;;;10495822;28;20411;-64
2023/08/08 03:39:01;;;;;;;5.82;4.32;;;18.20;92.90;;;;;;10498765;28;20403;-64
2023/08/08 03:49:04;;;;;;;6.13;4.73;;;18.20;92.90;;;;;;10387648;28;20438;-67
2023/08/08 03:54:05;;;;;;;5.47;4.18;;;18.20;92.90;;;;;;10388596;28;20421;-65
2023/08/08 03:59:06;;;;;;;6.50;4.32;;;18.20;93.00;;;;;;10390140;28;20430;-67
2023/08/08 04:04:06;;;;;;;5.90;4.22;;;18.20;92.90;;;;;;10389470;28;20410;-66
2023/08/08 04:09:07;;;;;;;6.07;4.67;;;18.10;92.90;;;;;;10390830;28;20407;-66
2023/08/08 04:14:07;;;;;;;5.03;4.30;;;18.20;92.90;;;;;;10392714;28;20414;-66
2023/08/08 04:19:08;;;;;;;5.90;4.30;;;18.10;92.90;;;;;;10386716;28;20823;-66
2023/08/08 04:24:09;;;;;;;5.60;4.27;;;18.10;92.90;;;;;;10389364;28;20413;-66
2023/08/08 04:29:09;;;;;;;5.40;4.25;;;18.10;92.90;;;;;;10394141;28;20406;-65
2023/08/08 04:34:10;;;;;;;4.93;3.88;;;18.10;92.90;;;;;;10392411;28;20524;-66
2023/08/08 04:39:10;;;;;;;7.45;4.28;;;18.10;92.90;;;;;;10385457;28;20399;-67
2023/08/08 04:44:11;;;;;;;5.70;4.17;;;18.10;92.80;;;;;;10394667;28;20415;-65
2023/08/08 04:49:12;;;;;;;5.23;4.20;;;18.10;92.80;;;;;;10374911;28;20411;-66
2023/08/08 04:54:12;;;;;;;5.00;3.83;;;18.10;92.80;;;;;;10392139;28;20432;-66
2023/08/08 04:59:13;;;;;;;5.47;4.13;;;18.10;92.80;;;;;;10391496;28;20410;-65
2023/08/08 05:04:13;;;;;;;5.67;4.20;;;18.10;92.70;;;;;;10390027;28;20824;-67
2023/08/08 05:09:15;;;;;;;4.90;3.73;;;18.10;92.80;;;;;;10396129;28;20449;-67
2023/08/08 05:14:16;;;;;;;5.50;3.83;;;18.10;92.70;;;;;;10385454;28;20431;-67
2023/08/08 05:19:17;;;;;;;6.10;3.90;;;18.10;92.70;;;;;;10384312;28;20759;-67
2023/08/08 05:24:17;;;;;;;6.33;4.10;;;18.10;92.90;;;;;;10395599;28;20422;-67
2023/08/08 05:29:18;;;;;;;5.22;3.83;;;18.10;92.80;;;;;;10385158;28;20414;-66
2023/08/08 05:34:19;;;;;;;6.00;3.80;;;18.10;92.80;;;;;;10389537;28;20414;-66
2023/08/08 05:39:19;;;;;;;5.37;3.90;;;18.00;93.00;;;;;;10368213;28;20921;-65
2023/08/08 05:44:21;;;;;;;4.97;3.40;;;18.10;92.90;;;;;;10391108;28;20411;-66
2023/08/08 05:49:21;;;;;;;5.25;3.63;;;18.10;92.90;;;;;;10395198;28;20414;-66
2023/08/08 05:54:22;;;;;;;4.63;3.60;;;18.10;92.80;;;;;;10390798;28;20426;-67
2023/08/08 05:59:22;;;;;;;4.00;3.57;;;18.10;92.80;;;;;;10393087;28;20403;-66
2023/08/08 06:04:23;;;;;;;5.40;3.63;;;18.10;92.80;;;;;;10377548;28;20407;-66
2023/08/08 06:09:25;;;;;;;4.55;3.50;;;18.10;92.90;;;;;;10392906;28;20428;-67
2023/08/08 06:14:25;;;;;;;5.78;3.60;;;18.10;92.80;;;;;;10390210;28;20422;-67
2023/08/08 06:19:26;;;;;;;5.80;3.77;;;18.10;92.80;;;;;;10387279;28;20512;-68
2023/08/08 06:24:26;;;;;;;5.23;3.50;;;18.10;92.80;;;;;;10389587;28;20403;-66
2023/08/08 06:29:27;;;;;;;6.33;3.37;;;18.10;93.00;;;;;;10383136;28;20414;-67
2023/08/08 06:34:28;;;;;;;4.73;3.27;;;18.10;92.90;;;;;;10399829;28;20421;-67
2023/08/08 06:39:28;;;;;;;7.23;3.17;;;18.20;92.90;;;;;;10398084;28;20415;-66
2023/08/08 06:44:32;;;;;;;5.05;3.40;;;18.20;92.90;;;;;;10400614;28;20925;-68
2023/08/08 06:49:32;;;;;;;6.17;3.53;;;18.20;92.80;;;;;;10395167;28;20418;-67
2023/08/08 06:54:33;;;;;;;5.43;3.35;;;18.20;92.90;;;;;;10378008;28;20419;-68
2023/08/08 06:59:34;;;;;;;5.90;3.58;;;18.20;92.80;;;;;;10400987;28;20407;-67
2023/08/08 07:04:34;;;;;;;4.63;3.07;;;18.20;92.70;;;;;;10392824;28;20518;-65
2023/08/08 07:09:37;;;;;;;5.23;3.30;;;18.20;92.70;;;;;;10398911;28;20503;-68
2023/08/08 07:14:37;;;;;;;4.27;3.30;;;18.30;92.70;;;;;;10395048;28;20435;-67
2023/08/08 07:19:38;;;;;;;5.00;3.03;;;18.30;92.70;;;;;;10391442;28;20428;-67
2023/08/08 07:24:38;;;;;;;4.90;3.33;;;18.30;92.70;;;;;;10395421;28;20418;-67
2023/08/08 07:29:39;;;;;;;5.75;3.22;;;18.30;92.90;;;;;;10395214;28;20417;-68
2023/08/08 07:34:40;;;;;;;5.22;2.90;;;18.40;92.60;;;;;;10400682;28;20416;-67
2023/08/08 07:39:40;;;;;;;4.78;3.17;;;18.40;92.60;;;;;;10397380;28;20481;-67
2023/08/08 07:44:41;;;;;;;6.00;3.50;;;18.40;92.50;;;;;;10392139;28;20826;-67
2023/08/08 07:49:42;;;;;;;4.83;3.10;;;18.50;92.50;;;;;;10388059;28;20438;-66
2023/08/08 07:54:42;;;;;;;4.13;3.13;;;18.60;92.40;;;;;;10383234;28;20418;-67
2023/08/08 07:59:43;;;;;;;4.00;2.92;;;18.60;92.40;;;;;;10393882;28;20405;-66
2023/08/08 08:04:44;;;;;;;4.10;2.90;;;18.60;92.30;;;;;;10397546;28;20415;-67
2023/08/08 08:09:45;;;;;;;5.27;2.90;;;18.60;92.30;;;;;;10397314;28;20938;-67
2023/08/08 08:14:45;;;;;;;4.77;3.00;;;18.60;92.20;;;;;;10396363;28;20465;-67
2023/08/08 08:19:46;;;;;;;4.03;2.70;;;18.70;92.20;;;;;;10373715;28;20975;-66
2023/08/08 08:24:47;;;;;;;4.82;2.88;;;18.70;92.10;;;;;;10396107;28;20933;-68
2023/08/08 08:29:47;;;;;;;3.50;2.60;;;18.70;92.10;;;;;;10394611;28;20552;-68
2023/08/08 08:34:48;;;;;;;3.90;2.77;;;18.70;92.00;;;;;;10376812;28;20564;-68
2023/08/08 08:39:49;;;;;;;4.68;2.63;;;18.80;92.00;;;;;;10393324;28;20519;-67
2023/08/08 08:44:51;;;;;;;3.83;2.60;;;18.80;92.00;;;;;;10391183;28;20422;-67
2023/08/08 08:49:55;;;;;;;3.38;2.40;;;18.80;92.00;;;;;;10398125;28;20476;-66
2023/08/08 08:54:57;;;;;;;4.35;2.60;;;18.80;92.00;;;;;;10395985;28;20427;-66
2023/08/08 08:59:58;;;;;;;4.07;2.50;;;18.80;92.00;;;;;;10393593;28;20418;-67
2023/08/08 09:05:01;;;;;;;3.83;2.30;;;18.90;91.90;;;;;;10392029;28;20927;-66
2023/08/08 09:10:03;;;;;;;5.55;2.40;;;18.90;91.90;;;;;;10397155;28;20411;-67
2023/08/08 09:15:04;;;;;;;3.45;2.35;;;18.90;91.90;;;;;;10395851;28;20426;-67
2023/08/08 09:20:05;;;;;;;5.47;2.47;;;18.90;91.90;;;;;;10389744;28;20441;-68
2023/08/08 09:25:07;;;;;;;3.88;2.58;;;18.90;91.90;;;;;;10394919;28;20935;-67
2023/08/08 09:30:10;;;;;;;6.57;2.58;;;18.90;91.90;;;;;;10378978;28;20442;-67
2023/08/08 09:35:11;;;;;;;3.60;2.38;;;18.90;92.10;;;;;;10398745;28;20537;-67
2023/08/08 09:40:12;;;;;;;4.25;2.20;;;19.00;91.80;;;;;;10392051;28;21260;-67
2023/08/08 09:45:15;;;;;;;3.45;2.13;;;19.10;91.90;;;;;;10413878;22;20543;-64
2023/08/08 09:50:18;;;;;;;3.13;2.20;;;19.10;91.90;;;;;;10368396;28;20440;-64
2023/08/08 09:55:19;;;;;;;3.53;2.17;;;19.10;91.90;;;;;;10382987;28;20833;-65
2023/08/08 10:00:20;;;;;;;2.70;2.30;;;19.10;91.90;;;;;;10353040;28;20428;-64
2023/08/08 10:05:21;;;;;;;3.40;2.00;;;19.10;91.90;;;;;;10354429;28;20412;-64
2023/08/08 10:10:22;;;;;;;2.53;2.20;;;19.20;92.00;;;;;;10359849;28;20431;-64
2023/08/08 10:15:27;;;;;;;4.15;1.98;;;19.20;92.00;;;;;;10357330;28;21047;-64
2023/08/08 10:20:30;;;;;;;2.73;2.20;;;19.20;92.00;;;;;;10357743;28;20555;-64
2023/08/08 10:25:31;;;;;;;3.30;2.07;;;19.20;92.00;;;;;;10355949;28;20773;-64
2023/08/08 10:30:52;;;;;;;4.13;2.17;;;19.20;92.00;;;;;;10346554;28;20409;-64
2023/08/08 10:36:06;;;;;;;2.65;1.92;;;19.20;92.10;;;;;;10358159;28;20892;-64
2023/08/08 10:41:15;;;;;;;5.13;2.17;;;19.20;92.20;;;;;;10352971;28;20955;-64
2023/08/08 10:46:25;;;;;;;4.50;2.10;;;19.20;92.40;;;;;;10349926;28;20423;-64
2023/08/08 10:51:33;;;;;;;2.90;1.90;;;19.30;92.50;;;;;;10352569;28;20500;-64
2023/08/08 10:56:36;;;;;;;3.72;1.90;;;19.30;92.50;;;;;;10354268;28;20420;-64
2023/08/08 11:01:37;;;;;;;3.17;1.90;;;19.30;92.60;;;;;;10354241;28;20940;-64
2023/08/08 11:06:39;;;;;;;2.60;2.00;;;19.30;92.60;;;;;;10359654;28;20417;-64
2023/08/08 11:11:41;;;;;;;3.15;2.00;;;19.30;92.60;;;;;;10363698;28;20479;-65
2023/08/08 11:16:43;;;;;;;2.70;2.10;;;19.30;92.60;;;;;;10358342;28;20495;-64
2023/08/08 11:21:45;;;;;;;3.50;2.20;;;19.40;92.70;;;;;;10364679;28;20465;-64
2023/08/08 11:26:47;;;;;;;4.03;2.25;;;19.40;92.70;;;;;;10357657;28;20416;-64
2023/08/08 11:31:48;;;;;;;3.67;2.08;;;19.30;92.80;;;;;;10362889;28;20436;-64
2023/08/08 11:36:49;;;;;;;3.13;1.88;;;19.40;92.80;;;;;;10363142;28;20479;-64
2023/08/08 11:41:50;;;;;;;3.77;2.20;;;19.30;92.80;;;;;;10357664;28;20462;-64
2023/08/08 11:46:51;;;;;;;2.78;2.15;;;19.40;92.80;;;;;;10363447;28;20508;-65
2023/08/08 11:51:59;;;;;;;3.55;2.47;;;19.40;93.10;;;;;;10363981;28;20404;-64
2023/08/08 11:57:01;;;;;;;3.40;2.20;;;19.40;93.10;;;;;;10366322;28;20780;-64
2023/08/08 12:02:02;;;;;;;3.20;2.10;;;19.50;93.20;;;;;;10362233;28;20399;-64
2023/08/08 12:07:03;;;;;;;3.88;2.08;;;19.50;93.20;;;;;;10363447;28;20483;-64
2023/08/08 12:12:05;;;;;;;3.70;2.10;;;19.50;93.20;;;;;;10362248;28;20468;-64
2023/08/08 12:17:06;;;;;;;2.70;1.90;;;19.60;93.10;;;;;;10361677;28;20831;-64
2023/08/08 12:22:06;;;;;;;3.22;2.30;;;19.60;93.00;;;;;;10356978;28;20420;-64
2023/08/08 12:27:07;;;;;;;3.73;2.00;;;19.60;93.00;;;;;;10364157;28;20408;-64
2023/08/08 12:32:08;;;;;;;2.50;2.10;;;19.60;93.00;;;;;;10359319;28;20413;-64
2023/08/08 12:37:09;;;;;;;2.73;2.10;;;19.70;93.00;;;;;;10361692;28;20412;-64
2023/08/08 12:42:10;;;;;;;3.20;2.13;;;19.60;93.00;;;;;;10358895;28;20896;-64
2023/08/08 12:47:11;;;;;;;5.07;2.33;;;19.60;93.00;;;;;;10362183;28;20939;-64
2023/08/08 12:52:11;;;;;;;2.55;1.80;;;19.60;93.10;;;;;;10360352;28;20411;-64
2023/08/08 12:57:12;;;;;;;3.40;2.10;;;19.50;93.10;;;;;;10353301;28;20437;-64
2023/08/08 13:02:13;;;;;;;3.63;2.07;;;19.50;93.20;;;;;;10357349;28;20457;-64
2023/08/08 13:07:13;;;;;;;2.50;1.80;;;19.50;93.20;;;;;;10359533;28;20432;-64
2023/08/08 13:12:14;;;;;;;3.83;2.13;;;19.50;93.50;;;;;;10357680;28;20863;-64
2023/08/08 13:17:14;;;;;;;2.70;2.00;;;19.60;93.30;;;;;;10360087;28;20872;-64
2023/08/08 13:22:15;;;;;;;2.57;2.00;;;19.50;93.40;;;;;;10362962;28;20412;-64
2023/08/08 13:27:16;;;;;;;2.73;1.90;;;19.50;93.40;;;;;;10358813;28;20780;-64
2023/08/08 13:32:16;;;;;;;3.50;2.10;;;19.50;93.50;;;;;;10361538;28;20427;-64
2023/08/08 13:37:17;;;;;;;2.45;1.80;;;19.60;93.50;;;;;;10353761;28;20404;-64
2023/08/08 13:42:17;;;;;;;3.97;1.70;;;19.60;93.40;;;;;;10352164;28;20478;-64
2023/08/08 13:47:18;;;;;;;2.33;1.92;;;19.70;93.40;;;;;;10358953;28;20409;-64
2023/08/08 13:52:19;;;;;;;2.57;1.77;;;19.70;93.20;;;;;;10355524;28;20484;-64
2023/08/08 13:57:19;;;;;;;2.80;1.90;;;19.70;93.20;;;;;;10358625;28;20428;-64
2023/08/08 14:02:20;;;;;;;3.23;1.80;;;19.80;93.20;;;;;;10360566;28;20413;-65
2023/08/08 14:07:21;;;;;;;2.90;1.97;;;19.70;93.20;;;;;;10351580;28;20411;-63
2023/08/08 14:12:22;;;;;;;2.13;1.73;;;19.80;93.20;;;;;;10364174;28;20456;-63
2023/08/08 14:17:30;;;;;;;2.65;1.80;;;19.80;93.10;;;;;;10362382;28;20411;-63
2023/08/08 14:22:33;;;;;;;2.40;1.73;;;19.90;93.10;;;;;;10358139;28;20408;-63
2023/08/08 14:27:34;;;;;;;2.30;1.70;;;19.90;93.00;;;;;;10354641;28;20416;-64
2023/08/08 14:32:35;;;;;;;3.53;1.80;;;20.00;92.90;;;;;;10353229;28;20776;-63
2023/08/08 14:37:35;;;;;;;2.53;1.90;;;19.90;92.90;;;;;;10359090;28;20420;-64
2023/08/08 14:42:36;;;;;;;3.13;1.65;;;20.00;92.90;;;;;;10356026;28;20401;-63
2023/08/08 14:47:37;;;;;;;2.93;1.70;;;19.90;92.80;;;;;;10360170;28;20420;-64
2023/08/08 14:52:37;;;;;;;2.30;1.70;;;19.90;92.70;;;;;;10365145;28;20404;-63
2023/08/08 14:57:38;;;;;;;2.07;1.60;;;19.90;92.60;;;;;;10347232;28;20916;-63
2023/08/08 15:02:39;;;;;;;2.25;1.77;;;19.90;92.50;;;;;;10367238;28;20947;-63
2023/08/08 15:07:40;;;;;;;3.08;1.90;;;20.00;92.50;;;;;;10366770;28;20410;-63
2023/08/08 15:12:41;;;;;;;2.07;1.80;;;20.20;92.40;;;;;;10364619;28;20465;-63
2023/08/08 15:17:42;;;;;;;2.13;1.70;;;20.10;92.40;;;;;;10363685;28;20892;-66
2023/08/08 15:22:43;;;;;;;2.83;1.60;;;20.10;92.40;;;;;;10366249;28;20458;-64
2023/08/08 15:27:43;;;;;;;4.47;1.60;;;20.00;92.30;;;;;;10355166;28;20402;-65
2023/08/08 15:32:44;;;;;;;3.03;1.90;;;20.10;92.10;;;;;;10363219;28;20408;-65
2023/08/08 15:37:44;;;;;;;2.50;1.63;;;20.20;92.00;;;;;;10363799;28;20526;-65
2023/08/08 15:42:46;;;;;;;3.00;1.73;;;20.30;91.80;;;;;;10367697;28;20405;-65
2023/08/08 15:47:47;;;;;;;2.60;1.58;;;20.50;91.70;;;;;;10359962;28;20412;-65
2023/08/08 15:52:47;;;;;;;3.90;1.70;;;20.60;91.40;;;;;;10356136;28;20422;-65
2023/08/08 15:57:48;;;;;;;3.93;1.60;;;20.70;91.30;;;;;;10361314;28;20408;-65
2023/08/08 16:02:49;;;;;;;6.10;1.90;;;20.80;91.00;;;;;;10354688;28;20401;-65
2023/08/08 16:07:50;;;;;;;3.92;1.50;;;20.90;90.80;;;;;;10360871;28;20820;-66
2023/08/08 16:12:50;;;;;;;2.47;1.30;;;20.90;90.50;;;;;;10363749;28;20415;-66
2023/08/08 16:17:51;;;;;;;3.30;1.60;;;20.90;90.20;;;;;;10342246;28;20431;-64
2023/08/08 16:22:53;;;;;;;3.55;1.50;;;20.80;90.10;;;;;;10356052;28;20923;-66
2023/08/08 16:27:53;;;;;;;3.15;1.52;;;20.80;90.10;;;;;;10352844;28;20406;-66
2023/08/08 16:32:54;;;;;;;3.30;1.43;;;20.70;90.20;;;;;;10355279;28;20426;-66
2023/08/08 16:37:55;;;;;;;2.47;1.20;;;20.60;90.30;;;;;;10363082;28;20471;-67
2023/08/08 16:42:56;;;;;;;2.58;1.50;;;20.60;90.40;;;;;;10359057;28;20409;-66
2023/08/08 16:47:56;;;;;;;3.72;1.38;;;20.60;90.40;;;;;;10358456;28;20412;-66
2023/08/08 16:52:57;;;;;;;2.90;1.20;;;20.50;90.30;;;;;;10358910;28;20405;-66
2023/08/08 16:57:58;;;;;;;2.58;1.20;;;20.50;90.30;;;;;;10364622;28;20408;-66
2023/08/08 17:02:59;;;;;;;2.23;0.73;;;20.40;88.70;;;;;;10364448;28;20443;-66
2023/08/08 17:08:00;;;;;;;3.67;0.80;;;20.10;86.00;;;;;;10358071;28;20901;-66
2023/08/08 17:13:00;;;;;;;2.35;0.90;;;20.00;86.30;;;;;;10359303;28;20409;-66
2023/08/08 17:18:02;;;;;;;3.13;0.80;;;19.90;86.50;;;;;;10354579;28;20782;-65
2023/08/08 17:23:03;;;;;;;5.40;0.93;;;19.80;86.80;;;;;;10358903;28;20408;-65
2023/08/08 17:28:04;;;;;;;4.10;0.90;;;19.80;86.90;;;;;;10361400;28;20423;-64
2023/08/08 17:33:04;;;;;;;2.67;1.10;;;19.80;87.30;;;;;;10340091;28;20781;-64
2023/08/08 17:38:05;;;;;;;2.60;0.90;;;19.90;87.40;;;;;;10358211;28;20422;-65
2023/08/08 17:43:06;;;;;;;1.92;0.90;;;19.90;87.80;;;;;;10359636;28;20400;-64
2023/08/08 17:48:07;;;;;;;4.37;0.90;;;20.00;88.30;;;;;;10355293;28;20429;-65
2023/08/08 17:53:08;;;;;;;3.23;0.97;;;20.00;88.60;;;;;;10360121;28;20535;-65
2023/08/08 17:58:08;;;;;;;2.73;1.00;;;20.10;88.90;;;;;;10359006;28;20471;-65
2023/08/08 18:03:09;;;;;;;2.30;1.00;;;20.10;89.10;;;;;;10350391;28;20426;-65
2023/08/08 18:08:16;;;;;;;3.38;1.27;;;20.10;89.40;;;;;;10349344;28;20415;-65
2023/08/08 18:13:16;;;;;;;3.10;1.38;;;20.10;89.70;;;;;;10357432;28;20897;-65
2023/08/08 18:18:17;;;;;;;2.78;1.13;;;20.10;89.90;;;;;;10351625;28;20413;-65
2023/08/08 18:23:18;;;;;;;2.05;1.00;;;20.30;90.00;;;;;;10343059;28;20465;-65
2023/08/08 18:28:20;;;;;;;2.70;1.00;;;20.10;90.10;;;;;;10357782;28;20413;-65
2023/08/08 18:33:21;;;;;;;2.55;1.00;;;20.20;90.20;;;;;;10360051;28;20435;-66
2023/08/08 18:38:21;;;;;;;2.25;1.08;;;20.10;90.20;;;;;;10351837;28;20434;-66
2023/08/08 18:43:22;;;;;;;2.05;1.05;;;20.10;90.30;;;;;;10353031;28;20404;-65
2023/08/08 18:48:23;;;;;;;2.20;1.00;;;20.10;90.40;;;;;;10356670;28;20992;-65
2023/08/08 18:53:23;;;;;;;2.40;1.00;;;20.10;90.50;;;;;;10360615;28;20404;-65
2023/08/08 18:58:24;;;;;;;2.17;1.07;;;20.10;90.50;;;;;;10353169;28;20416;-65
2023/08/08 19:03:24;;;;;;;1.90;0.90;;;20.00;90.50;;;;;;10354434;28;20463;-65
2023/08/08 19:08:25;;;;;;;2.07;1.03;;;20.00;90.60;;;;;;10352533;28;20416;-65
2023/08/08 19:13:26;;;;;;;2.03;1.00;;;20.00;90.60;;;;;;10354016;28;20407;-65
2023/08/08 19:18:26;;;;;;;2.17;1.20;;;20.00;90.70;;;;;;10354149;28;20432;-65
2023/08/08 19:23:27;;;;;;;1.70;1.00;;;20.00;90.90;;;;;;10333762;28;20402;-65
2023/08/08 19:28:28;;;;;;;2.73;1.20;;;19.90;90.90;;;;;;10355356;28;20416;-65
2023/08/08 19:33:29;;;;;;;2.50;1.50;;;19.90;91.00;;;;;;10357355;28;20929;-65
2023/08/08 19:38:30;;;;;;;3.20;1.57;;;19.90;91.10;;;;;;10364269;28;20503;-65
2023/08/08 19:43:31;;;;;;;1.83;1.30;;;19.90;91.20;;;;;;10356410;28;20812;-66
2023/08/08 19:48:32;;;;;;;2.03;1.30;;;19.90;91.30;;;;;;10359795;28;20416;-65
2023/08/08 19:53:32;;;;;;;1.97;1.23;;;19.80;91.60;;;;;;10345278;28;20415;-65
2023/08/08 19:58:34;;;;;;;2.50;1.40;;;19.80;91.40;;;;;;10355594;28;20417;-65
2023/08/08 20:03:36;;;;;;;2.60;1.30;;;19.80;91.50;;;;;;10361674;28;20653;-65
2023/08/08 20:08:36;;;;;;;2.40;1.53;;;19.80;91.50;;;;;;10360059;28;20403;-65
2023/08/08 20:13:37;;;;;;;3.20;1.97;;;19.70;91.60;;;;;;10351233;28;20417;-65
2023/08/08 20:18:37;;;;;;;3.30;1.60;;;19.70;91.60;;;;;;10352462;28;20425;-65
2023/08/08 20:23:38;;;;;;;2.50;1.80;;;19.70;91.70;;;;;;10361217;28;20397;-65
2023/08/08 20:28:44;;;;;;;2.30;1.85;;;19.70;92.00;;;;;;10359303;28;20772;-64
2023/08/08 20:33:45;;;;;;;3.67;1.70;;;19.60;91.70;;;;;;10362440;28;20413;-65
2023/08/08 20:38:45;;;;;;;3.13;1.70;;;19.60;91.70;;;;;;10361848;28;20416;-65
2023/08/08 20:43:46;;;;;;;2.40;1.70;;;19.60;91.80;;;;;;10343370;28;20407;-65
2023/08/08 20:48:48;;;;;;;3.33;1.63;;;19.60;91.80;;;;;;10355448;28;20424;-65
2023/08/08 20:53:48;;;;;;;2.53;1.70;;;19.60;91.80;;;;;;10355994;28;20805;-65
2023/08/08 20:58:49;;;;;;;2.50;1.70;;;19.50;91.80;;;;;;10356080;28;20413;-64
2023/08/08 21:03:51;;;;;;;2.97;1.70;;;19.50;91.80;;;;;;10353992;28;21074;-65
2023/08/08 21:08:52;;;;;;;3.37;2.23;;;19.50;91.90;;;;;;10358478;28;20512;-65
2023/08/08 21:13:52;;;;;;;3.50;2.20;;;19.50;92.00;;;;;;10357675;28;20432;-65
2023/08/08 21:18:53;;;;;;;3.77;2.80;;;19.50;92.00;;;;;;10357250;28;20851;-65
2023/08/08 21:23:54;;;;;;;3.20;2.20;;;19.40;92.00;;;;;;10359811;28;20402;-65
2023/08/08 21:28:54;;;;;;;3.50;2.23;;;19.40;92.10;;;;;;10358389;28;20922;-65
2023/08/08 21:33:55;;;;;;;4.10;2.10;;;19.40;92.20;;;;;;10353958;28;20504;-64
2023/08/08 21:38:57;;;;;;;3.17;2.23;;;19.30;92.20;;;;;;10356613;28;20504;-65
2023/08/08 21:43:58;;;;;;;2.57;1.90;;;19.30;92.20;;;;;;10358034;28;20765;-65
2023/08/08 21:49:00;;;;;;;3.10;2.13;;;19.30;92.20;;;;;;10339234;28;20427;-65
2023/08/08 21:54:01;;;;;;;2.22;2.00;;;19.30;92.20;;;;;;10353735;28;20463;-66
2023/08/08 21:59:01;;;;;;;5.40;2.53;;;19.30;92.30;;;;;;10355495;28;20484;-65
2023/08/08 22:04:03;;;;;;;3.73;2.10;;;19.20;92.30;;;;;;10352442;28;20413;-65
2023/08/08 22:09:05;;;;;;;3.38;2.00;;;19.20;92.30;;;;;;10353439;28;20715;-65
2023/08/08 22:14:05;;;;;;;3.03;1.92;;;19.30;92.40;;;;;;10350879;28;20423;-65
2023/08/08 22:19:06;;;;;;;4.32;2.20;;;19.20;92.40;;;;;;10353087;28;20431;-65
2023/08/08 22:24:07;;;;;;;3.22;2.15;;;19.20;92.40;;;;;;10348793;28;20407;-65
2023/08/08 22:29:08;;;;;;;2.95;2.30;;;19.20;92.40;;;;;;10349733;28;20461;-65
2023/08/08 22:34:08;;;;;;;3.40;2.23;;;19.20;92.50;;;;;;10349372;28;20421;-65
2023/08/08 22:39:09;;;;;;;2.90;1.90;;;19.10;92.40;;;;;;10355565;28;20409;-65
2023/08/08 22:44:10;;;;;;;3.33;2.10;;;19.10;92.40;;;;;;10352359;28;21004;-65
2023/08/08 22:49:10;;;;;;;3.73;2.30;;;19.10;92.50;;;;;;10353840;28;20423;-65
2023/08/08 22:54:11;;;;;;;3.53;2.33;;;19.10;92.50;;;;;;10355933;28;20451;-65
2023/08/08 22:59:11;;;;;;;3.13;2.20;;;19.10;92.50;;;;;;10350818;28;20415;-65
2023/08/08 23:04:12;;;;;;;4.00;2.30;;;19.00;92.50;;;;;;10351033;28;20407;-65
2023/08/08 23:09:12;;;;;;;3.30;2.30;;;19.00;92.40;;;;;;10345785;28;20934;-65
2023/08/08 23:14:13;;;;;;;4.00;2.10;;;19.00;92.40;;;;;;10357847;28;20692;-65
2023/08/08 23:19:14;;;;;;;3.57;2.40;;;19.00;92.40;;;;;;10355267;28;20544;-65
2023/08/08 23:24:15;;;;;;;3.27;2.37;;;19.00;92.40;;;;;;10354989;28;20400;-66
2023/08/08 23:29:15;;;;;;;3.10;2.33;;;19.00;92.40;;;;;;10357835;28;20941;-65
2023/08/08 23:34:16;;;;;;;3.47;2.30;;;18.90;92.40;;;;;;10357784;28;20435;-65
2023/08/08 23:39:17;;;;;;;4.17;2.33;;;18.90;92.40;;;;;;10356298;28;20923;-65
2023/08/08 23:44:18;;;;;;;3.85;2.40;;;18.90;92.40;;;;;;10352814;28;20436;-65
2023/08/08 23:49:19;;;;;;;3.10;2.37;;;18.80;92.40;;;;;;10359150;28;20487;-65
2023/08/08 23:54:19;;;;;;;3.97;2.43;;;18.80;92.40;;;;;;10358583;28;20492;-65
2023/08/08 23:59:20;;;;;;;4.17;2.60;;;18.80;92.40;;;;;;10359146;28;20437;-65
